NCAR-RAP Real-Time Weather Data

Output produced by METARs form (19 June 2019  12:01 UTC)
found at http://weather.rap.ucar.edu/surface/
 
KSGF 191152Z 16006KT 10SM VCTS RA BKN038 OVC100 18/17 A2979 RMK AO2 LTG DSNT SE AND S SLP077 P0007 60008 70033 T01830172 10189 20178 53001
KSGF 191052Z 00000KT 10SM -RA FEW090 SCT120 18/17 A2979 RMK AO2 LTG DSNT S-NW RAB23 SLP074 P0000 T01830172
KSGF 190952Z 18006KT 10SM CLR 18/17 A2977 RMK AO2 SLP068 T01830167
KSGF 190852Z 20005KT 10SM FEW120 18/17 A2979 RMK AO2 SLP076 60001 T01830167 55013
KSGF 190752Z 16005KT 10SM FEW120 18/17 A2979 RMK AO2 SLP076 T01830167
KSGF 190652Z 14009KT 10SM CLR 19/17 A2980 RMK AO2 RAE25 PRESFR SLP079 P0001 T01890172
KSGF 190552Z 18005KT 10SM -RA SCT110 19/17 A2983 RMK AO2 RAB04 SLP090 P0000 60025 T01890172 10272 20189 402940172 58009
KSGF 190452Z 15005KT 10SM OVC110 19/17 A2987 RMK AO2 LTG DSNT E RAE51 TSE10 SLP105 P0018 T01890172
KSGF 190430Z 26003KT 10SM -RA FEW009 OVC100 19/17 A2989 RMK AO2 LTG DSNT NE-SE TSE10 P0018 T01890167
KSGF 190417Z 25003KT 10SM -RA SCT010 SCT021 OVC100 19/17 A2991 RMK AO2 LTG DSNT NE-SE TSE10 P0018 T01890172
KSGF 190410Z 26003KT 10SM -RA BKN010 BKN023 OVC100 19/17 A2992 RMK AO2 LTG DSNT NE-SE TSE10 P0018 T01890172
KSGF 190401Z 27004G21KT 3SM TSRA BR FEW008 BKN018 OVC080 19/17 A2993 RMK AO2 LTG DSNT NW-E P0017 T01890172
KSGF 190354Z 30010G26KT 2 1/2SM +TSRA BR BKN016 BKN037 OVC090 19/17 A2994 RMK AO2 LTG DSNT ALQDS P0008 T01940172
KSGF 190352Z 30012G26KT 4SM +TSRA BR SCT018 BKN037 OVC090 19/17 A2994 RMK AO2 PK WND 27026/0348 LTG DSNT ALQDS RAE07B46 TSE18B51 SLP129 P0002 T01940172
KSGF 190343Z 10SM SCT035 BKN049 OVC090 21/18 A2994 RMK AO2 LTG DSNT ALQDS RAE07 TSE18 PRESRR P0000 T02060178
KSGF 190324Z 10007KT 10SM VCTS SCT037 BKN045 OVC065 20/17 A2988 RMK AO2 LTG DSNT NW RAE07 TSE18 P0000 T02000172
KSGF 190252Z 17017G30KT 8SM -TSRA BKN031 BKN042 OVC065 22/17 A2986 RMK AO2 PK WND 18030/0250 LTG DSNT W RAB33 TSB30 SLP102 P0005 60005 T02170172 51011
KSGF 190236Z 05004KT 10SM -TSRA SCT039 BKN060 25/19 A2985 RMK AO2 LTG DSNT S RAB33 TSB30 P0000 T02500189
KSGF 190152Z 00000KT 10SM FEW039 SCT055 BKN070 26/19 A2985 RMK AO2 SLP097 T02560189
KSGF 190052Z 00000KT 10SM FEW041 FEW055 26/18 A2985 RMK AO2 SLP096 T02610183
KSGF 182352Z 19003KT 10SM CLR 27/19 A2983 RMK AO2 SLP088 T02670189 10294 20256 55018
KSGF 182252Z 22004KT 10SM CLR 28/18 A2982 RMK AO2 SLP087 T02780178
KSGF 182152Z 20005KT 10SM SCT043 28/18 A2986 RMK AO2 SLP098 T02780183
KSGF 182052Z VRB06KT 10SM BKN038 BKN046 28/19 A2988 RMK AO2 SLP107 T02830194 58019
KSGF 181952Z 00000KT 10SM SCT033 BKN045 28/18 A2990 RMK AO2 SLP114 T02780183
KSGF 181852Z 35003KT 10SM SCT027 SCT035 BKN047 26/18 A2992 RMK AO2 SLP121 T02610183
KSGF 181820Z 03004KT 10SM BKN028 BKN048 27/19 A2993 RMK AO2 T02670189
KSGF 181752Z 34003KT 10SM FEW037 27/19 A2994 RMK AO2 SLP127 T02720194 10272 20189 58004
KSGF 181716Z VRB04KT 10SM SCT018 SCT023 26/20 A2995 RMK AO2 T02560200
KSGF 181707Z 00000KT 10SM FEW014 BKN021 24/19 A2995 RMK AO2 T02440194
KSGF 181652Z 00000KT 10SM BKN012 25/20 A2995 RMK AO2 SLP131 T02500200
KSGF 181634Z 00000KT 10SM OVC010 24/19 A2995 RMK AO2 T02390194